Time;durP1;ratioP1;P1;durP2;ratioP2;P2;SDS_P1;SDS_P2;PMS_P1;PMS_P2;Temp;Humidity;BMP_temperature;BMP_pressure;BME280_temperature;BME280_humidity;BME280_pressure;Samples;Min_cycle;Max_cycle;Signal;HPM_P1;HPM_P2
2021/05/13 00:00:15;;;;;;;;;;;;;;;;;;4996960;28;19949;-55
2021/05/13 00:02:41;;;;;;;;;;;;;;;;;;4997366;28;20390;-53
2021/05/13 00:05:06;;;;;;;;;;;;;;;;;;4996951;28;19956;-53
2021/05/13 00:07:32;;;;;;;;;;;;;;;;;;4995437;28;19910;-53
2021/05/13 00:09:57;;;;;;;;;;;;;;;;;;4996537;28;20320;-53
2021/05/13 00:13:06;;;;;;;;;;;;;;;;;;4997010;28;20354;-49
2021/05/13 00:15:11;;;;;;;;;;;;;;;;;;4991139;28;20381;-53
2021/05/13 00:17:36;;;;;;;;;;;;;;;;;;4997047;28;19948;-56
2021/05/13 00:20:01;;;;;;;;;;;;;;;;;;4978313;28;19944;-49
2021/05/13 00:22:26;;;;;;;;;;;;;;;;;;4975364;28;19950;-52
2021/05/13 00:24:52;;;;;;;;;;;;;;;;;;4976845;28;19915;-55
2021/05/13 00:27:17;;;;;;;;;;;;;;;;;;4975776;28;20265;-56
2021/05/13 00:29:42;;;;;;;;;;;;;;;;;;4976775;28;19914;-53
2021/05/13 00:32:08;;;;;;;;;;;;;;;;;;4985917;28;19917;-53
2021/05/13 00:34:33;;;;;;;;;;;;;;;;;;4996144;28;20451;-56
2021/05/13 00:36:58;;;;;;;;;;;;;;;;;;4994846;28;19907;-54
2021/05/13 00:39:23;;;;;;;;;;;;;;;;;;4995894;28;19909;-53
2021/05/13 00:41:48;;;;;;;;;;;;;;;;;;4996229;28;20008;-53
2021/05/13 00:44:14;;;;;;;;;;;;;;;;;;4996070;28;20009;-56
2021/05/13 00:46:39;;;;;;;;;;;;;;;;;;4996383;28;19910;-55
2021/05/13 00:49:07;;;;;;;;;;;;;;;;;;4995960;28;19965;-54
2021/05/13 00:51:33;;;;;;;;;;;;;;;;;;4995903;28;19921;-53
2021/05/13 00:53:58;;;;;;;;;;;;;;;;;;4995102;28;19910;-53
2021/05/13 00:56:23;;;;;;;;;;;;;;;;;;4995922;28;19910;-54
2021/05/13 00:58:49;;;;;;;;;;;;;;;;;;4995587;28;19910;-48
2021/05/13 01:01:18;;;;;;;;;;;;;;;;;;4988304;28;20246;-53
2021/05/13 01:03:44;;;;;;;;;;;;;;;;;;4976875;28;20243;-54
2021/05/13 01:06:09;;;;;;;;;;;;;;;;;;4982079;28;19910;-53
2021/05/13 01:08:35;;;;;;;;;;;;;;;;;;4984761;28;20392;-53
2021/05/13 01:11:00;;;;;;;;;;;;;;;;;;4983267;28;20007;-55
2021/05/13 01:13:27;;;;;;;;;;;;;;;;;;4983694;28;19940;-56
2021/05/13 01:16:10;;;;;;;;;;;;;;;;;;4983302;28;19928;-56
2021/05/13 01:18:37;;;;;;;;;;;;;;;;;;4984178;28;19918;-53
2021/05/13 01:21:02;;;;;;;;;;;;;;;;;;4982718;28;20369;-54
2021/05/13 01:23:27;;;;;;;;;;;;;;;;;;4983736;28;19924;-53
2021/05/13 01:25:54;;;;;;;;;;;;;;;;;;4983116;28;20001;-52
2021/05/13 01:28:19;;;;;;;;;;;;;;;;;;4982407;28;19920;-52
2021/05/13 01:30:44;;;;;;;;;;;;;;;;;;4984932;28;19910;-52
2021/05/13 01:33:11;;;;;;;;;;;;;;;;;;4981549;28;20686;-52
2021/05/13 01:35:36;;;;;;;;;;;;;;;;;;4979096;28;19922;-56
2021/05/13 01:38:01;;;;;;;;;;;;;;;;;;4975285;28;19914;-57
2021/05/13 01:40:26;;;;;;;;;;;;;;;;;;4974927;28;19942;-54
2021/05/13 01:42:52;;;;;;;;;;;;;;;;;;4975015;28;19918;-55
2021/05/13 01:45:17;;;;;;;;;;;;;;;;;;4975788;28;19921;-52
2021/05/13 01:47:42;;;;;;;;;;;;;;;;;;4958027;28;20380;-55
2021/05/13 01:50:07;;;;;;;;;;;;;;;;;;4957705;28;19914;-54
2021/05/13 01:52:33;;;;;;;;;;;;;;;;;;4973991;28;19914;-61
2021/05/13 01:54:58;;;;;;;;;;;;;;;;;;4973676;28;19910;-53
2021/05/13 01:57:23;;;;;;;;;;;;;;;;;;4974110;28;19914;-53
2021/05/13 01:59:48;;;;;;;;;;;;;;;;;;4975315;28;19969;-55
2021/05/13 02:02:15;;;;;;;;;;;;;;;;;;4973371;28;20401;-55
2021/05/13 02:04:40;;;;;;;;;;;;;;;;;;4975412;28;19918;-53
2021/05/13 02:07:05;;;;;;;;;;;;;;;;;;4957403;28;19916;-54
2021/05/13 02:09:30;;;;;;;;;;;;;;;;;;4973633;28;19925;-57
2021/05/13 02:11:58;;;;;;;;;;;;;;;;;;4973517;28;20088;-56
2021/05/13 02:14:23;;;;;;;;;;;;;;;;;;4974922;28;19918;-55
2021/05/13 02:16:49;;;;;;;;;;;;;;;;;;4974950;28;20381;-53
2021/05/13 02:19:14;;;;;;;;;;;;;;;;;;4973354;28;19910;-54
2021/05/13 02:21:39;;;;;;;;;;;;;;;;;;4974722;28;20281;-54
2021/05/13 02:24:04;;;;;;;;;;;;;;;;;;4974623;28;20278;-56
2021/05/13 02:26:30;;;;;;;;;;;;;;;;;;4973390;28;19918;-54
2021/05/13 02:28:55;;;;;;;;;;;;;;;;;;4973541;28;19921;-54
2021/05/13 02:31:20;;;;;;;;;;;;;;;;;;4973200;28;20403;-53
2021/05/13 02:33:46;;;;;;;;;;;;;;;;;;4974582;28;20514;-53
2021/05/13 02:36:11;;;;;;;;;;;;;;;;;;4973028;28;19936;-55
2021/05/13 02:38:36;;;;;;;;;;;;;;;;;;4973322;28;19914;-56
2021/05/13 02:41:01;;;;;;;;;;;;;;;;;;4974311;28;19918;-57
2021/05/13 02:43:27;;;;;;;;;;;;;;;;;;4974681;28;20012;-56
2021/05/13 02:45:52;;;;;;;;;;;;;;;;;;4974532;28;20004;-52
2021/05/13 02:48:17;;;;;;;;;;;;;;;;;;4974109;28;19964;-55
2021/05/13 02:50:42;;;;;;;;;;;;;;;;;;4957142;28;20277;-53
2021/05/13 02:53:08;;;;;;;;;;;;;;;;;;4974694;28;20362;-55
2021/05/13 02:55:33;;;;;;;;;;;;;;;;;;4978402;28;19956;-56
2021/05/13 02:58:00;;;;;;;;;;;;;;;;;;4977152;28;20278;-56
2021/05/13 03:02:51;;;;;;;;;;;;;;;;;;4978198;28;19998;-54
2021/05/13 03:05:16;;;;;;;;;;;;;;;;;;4977905;28;20005;-54
2021/05/13 03:07:47;;;;;;;;;;;;;;;;;;4978610;28;19910;-56
2021/05/13 03:10:20;;;;;;;;;;;;;;;;;;4977915;28;19914;-53
2021/05/13 03:12:48;;;;;;;;;;;;;;;;;;4978282;28;19957;-56
2021/05/13 03:15:13;;;;;;;;;;;;;;;;;;4977802;28;20390;-54
2021/05/13 03:17:38;;;;;;;;;;;;;;;;;;4978349;28;19971;-54
2021/05/13 03:20:03;;;;;;;;;;;;;;;;;;4976567;28;19914;-56
2021/05/13 03:22:29;;;;;;;;;;;;;;;;;;4977881;28;19930;-54
2021/05/13 03:24:59;;;;;;;;;;;;;;;;;;4977853;28;19918;-54
2021/05/13 03:29:50;;;;;;;;;;;;;;;;;;4976970;28;20417;-55
2021/05/13 03:32:15;;;;;;;;;;;;;;;;;;4976295;28;20404;-55
2021/05/13 03:34:40;;;;;;;;;;;;;;;;;;4977695;28;19922;-57
2021/05/13 03:37:05;;;;;;;;;;;;;;;;;;4976321;28;19985;-54
2021/05/13 03:39:31;;;;;;;;;;;;;;;;;;4977584;28;20369;-56
2021/05/13 03:41:56;;;;;;;;;;;;;;;;;;4977650;28;19992;-52
2021/05/13 03:44:21;;;;;;;;;;;;;;;;;;4976150;28;19918;-55
2021/05/13 03:46:47;;;;;;;;;;;;;;;;;;4976511;28;19918;-54
2021/05/13 03:49:12;;;;;;;;;;;;;;;;;;4977614;28;19914;-56
2021/05/13 03:51:37;;;;;;;;;;;;;;;;;;4976323;28;19933;-56
2021/05/13 03:54:02;;;;;;;;;;;;;;;;;;4977476;28;20274;-55
2021/05/13 03:56:28;;;;;;;;;;;;;;;;;;4977026;28;19914;-55
2021/05/13 03:59:05;;;;;;;;;;;;;;;;;;4977589;28;19965;-56
2021/05/13 04:03:55;;;;;;;;;;;;;;;;;;4976842;28;19965;-54
2021/05/13 04:06:20;;;;;;;;;;;;;;;;;;4976908;28;19918;-55
2021/05/13 04:08:46;;;;;;;;;;;;;;;;;;4977052;28;20289;-55
2021/05/13 04:11:11;;;;;;;;;;;;;;;;;;4976842;28;19939;-53
2021/05/13 04:13:40;;;;;;;;;;;;;;;;;;4976031;28;19922;-56
2021/05/13 04:16:07;;;;;;;;;;;;;;;;;;4959678;28;19914;-53
2021/05/13 04:18:32;;;;;;;;;;;;;;;;;;4975459;28;19915;-55
2021/05/13 04:20:57;;;;;;;;;;;;;;;;;;4975477;28;20382;-57
2021/05/13 04:23:23;;;;;;;;;;;;;;;;;;4976574;28;19925;-55
2021/05/13 04:25:49;;;;;;;;;;;;;;;;;;4975719;28;19922;-51
2021/05/13 04:28:14;;;;;;;;;;;;;;;;;;4976557;28;19984;-55
2021/05/13 04:30:39;;;;;;;;;;;;;;;;;;4976777;28;20398;-58
2021/05/13 04:33:05;;;;;;;;;;;;;;;;;;4976946;28;19910;-54
2021/05/13 04:35:30;;;;;;;;;;;;;;;;;;4976457;28;20379;-57
2021/05/13 04:37:55;;;;;;;;;;;;;;;;;;4976603;28;19915;-57
2021/05/13 04:40:20;;;;;;;;;;;;;;;;;;4975391;28;19921;-54
2021/05/13 04:42:46;;;;;;;;;;;;;;;;;;4975484;28;19918;-53
2021/05/13 04:45:11;;;;;;;;;;;;;;;;;;4975360;28;19926;-54
2021/05/13 04:50:07;;;;;;;;;;;;;;;;;;4976401;28;19914;-56
2021/05/13 04:52:32;;;;;;;;;;;;;;;;;;4975970;28;20487;-54
2021/05/13 04:54:58;;;;;;;;;;;;;;;;;;4976533;28;20370;-52
2021/05/13 04:57:23;;;;;;;;;;;;;;;;;;4974903;28;20314;-56
2021/05/13 04:59:48;;;;;;;;;;;;;;;;;;4975010;28;19965;-58
2021/05/13 05:02:14;;;;;;;;;;;;;;;;;;4976125;28;19914;-55
2021/05/13 05:04:39;;;;;;;;;;;;;;;;;;4958513;28;19969;-52
2021/05/13 05:07:04;;;;;;;;;;;;;;;;;;4976222;28;19968;-53
2021/05/13 05:09:29;;;;;;;;;;;;;;;;;;4975734;28;19920;-55
2021/05/13 05:11:55;;;;;;;;;;;;;;;;;;4974890;28;19914;-55
2021/05/13 05:14:20;;;;;;;;;;;;;;;;;;4974445;28;19914;-55
2021/05/13 05:16:45;;;;;;;;;;;;;;;;;;4975232;28;19910;-55
2021/05/13 05:19:10;;;;;;;;;;;;;;;;;;4975831;28;19922;-51
2021/05/13 05:21:35;;;;;;;;;;;;;;;;;;4974127;28;20676;-55
2021/05/13 05:24:01;;;;;;;;;;;;;;;;;;4974712;28;19977;-53
2021/05/13 05:26:26;;;;;;;;;;;;;;;;;;4975586;28;19914;-53
2021/05/13 05:28:51;;;;;;;;;;;;;;;;;;4958524;28;20429;-56
2021/05/13 05:31:16;;;;;;;;;;;;;;;;;;4974573;28;19921;-56
2021/05/13 05:33:42;;;;;;;;;;;;;;;;;;4975138;28;20317;-54
2021/05/13 05:36:07;;;;;;;;;;;;;;;;;;4975695;28;19945;-55
2021/05/13 05:38:32;;;;;;;;;;;;;;;;;;4974008;28;19914;-54
2021/05/13 05:40:57;;;;;;;;;;;;;;;;;;4974152;28;20389;-54
2021/05/13 05:43:23;;;;;;;;;;;;;;;;;;4973891;28;19918;-56
2021/05/13 05:45:48;;;;;;;;;;;;;;;;;;4975128;28;19914;-57
2021/05/13 05:48:13;;;;;;;;;;;;;;;;;;4989244;28;20366;-55
2021/05/13 05:50:39;;;;;;;;;;;;;;;;;;4994337;28;20425;-55
2021/05/13 05:53:04;;;;;;;;;;;;;;;;;;4994663;28;19910;-51
2021/05/13 05:55:30;;;;;;;;;;;;;;;;;;4992941;28;19960;-51
2021/05/13 05:57:56;;;;;;;;;;;;;;;;;;4994539;28;19921;-54
2021/05/13 06:00:21;;;;;;;;;;;;;;;;;;4994637;28;19918;-57
2021/05/13 06:02:47;;;;;;;;;;;;;;;;;;4992411;28;21307;-52
2021/05/13 06:05:13;;;;;;;;;;;;;;;;;;4994313;28;19914;-56
2021/05/13 06:07:38;;;;;;;;;;;;;;;;;;4994638;28;19920;-55
2021/05/13 06:10:04;;;;;;;;;;;;;;;;;;4994299;28;19913;-56
2021/05/13 06:12:30;;;;;;;;;;;;;;;;;;4992976;28;20028;-53
2021/05/13 06:14:55;;;;;;;;;;;;;;;;;;4993116;28;19914;-56
2021/05/13 06:17:20;;;;;;;;;;;;;;;;;;4992436;28;20000;-55
2021/05/13 06:19:45;;;;;;;;;;;;;;;;;;4993938;28;19913;-53
2021/05/13 06:22:11;;;;;;;;;;;;;;;;;;4994197;28;20363;-55
2021/05/13 06:24:36;;;;;;;;;;;;;;;;;;4993879;28;19980;-53
2021/05/13 06:27:01;;;;;;;;;;;;;;;;;;4992762;28;19918;-54
2021/05/13 06:29:28;;;;;;;;;;;;;;;;;;4993837;28;19941;-56
2021/05/13 06:31:53;;;;;;;;;;;;;;;;;;4994070;28;20361;-53
2021/05/13 06:34:18;;;;;;;;;;;;;;;;;;4993909;28;19917;-55
2021/05/13 06:36:43;;;;;;;;;;;;;;;;;;4993395;28;19933;-55
2021/05/13 06:39:09;;;;;;;;;;;;;;;;;;4992870;28;19913;-54
2021/05/13 06:41:34;;;;;;;;;;;;;;;;;;4993643;28;19968;-54
2021/05/13 06:43:59;;;;;;;;;;;;;;;;;;4992638;28;19961;-54
2021/05/13 06:46:25;;;;;;;;;;;;;;;;;;4994120;28;19956;-54
2021/05/13 06:48:50;;;;;;;;;;;;;;;;;;4992089;28;19917;-54
2021/05/13 06:51:15;;;;;;;;;;;;;;;;;;4993712;28;19913;-55
2021/05/13 06:53:41;;;;;;;;;;;;;;;;;;4993431;28;19917;-55
2021/05/13 06:56:06;;;;;;;;;;;;;;;;;;4992543;28;20029;-53
2021/05/13 06:58:31;;;;;;;;;;;;;;;;;;4992187;28;19918;-51
2021/05/13 07:00:56;;;;;;;;;;;;;;;;;;4992268;28;19933;-57
2021/05/13 07:03:21;;;;;;;;;;;;;;;;;;4992431;28;19914;-56
2021/05/13 07:05:47;;;;;;;;;;;;;;;;;;4992536;28;20000;-56
2021/05/13 07:08:12;;;;;;;;;;;;;;;;;;4993626;28;20019;-55
2021/05/13 07:10:37;;;;;;;;;;;;;;;;;;4993243;28;19917;-53
2021/05/13 07:13:03;;;;;;;;;;;;;;;;;;4976473;28;19968;-54
2021/05/13 07:15:28;;;;;;;;;;;;;;;;;;4992343;28;19957;-55
2021/05/13 07:17:53;;;;;;;;;;;;;;;;;;4992067;28;19969;-52
2021/05/13 07:20:19;;;;;;;;;;;;;;;;;;4993219;28;19913;-55
2021/05/13 07:22:45;;;;;;;;;;;;;;;;;;4983776;28;19930;-55
2021/05/13 07:25:10;;;;;;;;;;;;;;;;;;4984030;28;19918;-52
2021/05/13 07:27:35;;;;;;;;;;;;;;;;;;4983388;28;20439;-54
2021/05/13 07:30:00;;;;;;;;;;;;;;;;;;4983678;28;20317;-57
2021/05/13 07:32:26;;;;;;;;;;;;;;;;;;4981034;28;19945;-56
2021/05/13 07:34:51;;;;;;;;;;;;;;;;;;4981538;28;19949;-58
2021/05/13 07:37:16;;;;;;;;;;;;;;;;;;4983964;28;20380;-54
2021/05/13 07:39:41;;;;;;;;;;;;;;;;;;4981965;28;20329;-56
2021/05/13 07:42:06;;;;;;;;;;;;;;;;;;4977749;28;19945;-56
2021/05/13 07:44:32;;;;;;;;;;;;;;;;;;4979271;28;19914;-57
2021/05/13 07:46:58;;;;;;;;;;;;;;;;;;4993779;28;19916;-53
2021/05/13 07:49:25;;;;;;;;;;;;;;;;;;4996394;28;20381;-55
2021/05/13 07:51:50;;;;;;;;;;;;;;;;;;4995952;28;19910;-53
2021/05/13 07:54:15;;;;;;;;;;;;;;;;;;4997272;28;19906;-54
2021/05/13 07:56:41;;;;;;;;;;;;;;;;;;4979537;28;19914;-56
2021/05/13 07:59:06;;;;;;;;;;;;;;;;;;4995537;28;19910;-55
2021/05/13 08:01:31;;;;;;;;;;;;;;;;;;4995639;28;19984;-56
2021/05/13 08:03:56;;;;;;;;;;;;;;;;;;4988819;28;19957;-54
2021/05/13 08:06:21;;;;;;;;;;;;;;;;;;4984658;28;19910;-55
2021/05/13 08:08:47;;;;;;;;;;;;;;;;;;4990255;28;19937;-55
2021/05/13 08:11:12;;;;;;;;;;;;;;;;;;4972993;28;19910;-56
2021/05/13 08:13:37;;;;;;;;;;;;;;;;;;4975586;28;19914;-54
2021/05/13 08:16:02;;;;;;;;;;;;;;;;;;4977228;28;19914;-57
2021/05/13 08:18:27;;;;;;;;;;;;;;;;;;4975683;28;19913;-56
2021/05/13 08:20:53;;;;;;;;;;;;;;;;;;4976394;28;19917;-56
2021/05/13 08:23:18;;;;;;;;;;;;;;;;;;4975836;28;19922;-56
2021/05/13 08:25:43;;;;;;;;;;;;;;;;;;4976218;28;19910;-56
2021/05/13 08:28:09;;;;;;;;;;;;;;;;;;4976240;28;19921;-55
2021/05/13 08:30:34;;;;;;;;;;;;;;;;;;4975239;28;20049;-56
2021/05/13 08:32:59;;;;;;;;;;;;;;;;;;4976502;28;20090;-54
2021/05/13 08:35:24;;;;;;;;;;;;;;;;;;4978107;28;19925;-55
2021/05/13 08:37:49;;;;;;;;;;;;;;;;;;4975846;28;19914;-55
2021/05/13 08:40:15;;;;;;;;;;;;;;;;;;4973480;28;19932;-55
2021/05/13 08:42:40;;;;;;;;;;;;;;;;;;4994710;28;19921;-54
2021/05/13 08:45:05;;;;;;;;;;;;;;;;;;4995147;28;19909;-56
2021/05/13 08:47:30;;;;;;;;;;;;;;;;;;4995703;28;20008;-52
2021/05/13 08:49:56;;;;;;;;;;;;;;;;;;4994398;28;19956;-58
2021/05/13 08:52:25;;;;;;;;;;;;;;;;;;4995434;28;20041;-56
2021/05/13 08:54:50;;;;;;;;;;;;;;;;;;4995469;28;19952;-55
2021/05/13 08:57:15;;;;;;;;;;;;;;;;;;4995199;28;19909;-53
2021/05/13 08:59:40;;;;;;;;;;;;;;;;;;4995567;28;19980;-56
2021/05/13 09:02:05;;;;;;;;;;;;;;;;;;4995733;28;19961;-54
2021/05/13 09:04:31;;;;;;;;;;;;;;;;;;4995342;28;20340;-57
2021/05/13 09:06:58;;;;;;;;;;;;;;;;;;4995412;28;20333;-54
2021/05/13 09:09:23;;;;;;;;;;;;;;;;;;4994339;28;19957;-57
2021/05/13 09:11:48;;;;;;;;;;;;;;;;;;4985522;28;19960;-56
2021/05/13 09:14:14;;;;;;;;;;;;;;;;;;4994674;28;19910;-53
2021/05/13 09:16:39;;;;;;;;;;;;;;;;;;4991742;28;19917;-58
2021/05/13 09:19:04;;;;;;;;;;;;;;;;;;4984761;28;19910;-55
2021/05/13 09:21:29;;;;;;;;;;;;;;;;;;4981116;28;19929;-55
2021/05/13 09:23:55;;;;;;;;;;;;;;;;;;4979467;28;20261;-56
2021/05/13 09:26:20;;;;;;;;;;;;;;;;;;4992978;28;20227;-56
2021/05/13 09:28:45;;;;;;;;;;;;;;;;;;4994624;28;19919;-56
2021/05/13 09:31:10;;;;;;;;;;;;;;;;;;4992094;28;20047;-52
2021/05/13 09:33:41;;;;;;;;;;;;;;;;;;4975468;28;19953;-55
2021/05/13 09:36:06;;;;;;;;;;;;;;;;;;4974200;28;19922;-56
2021/05/13 09:38:31;;;;;;;;;;;;;;;;;;4973748;28;19917;-53
2021/05/13 09:40:57;;;;;;;;;;;;;;;;;;4973331;28;19910;-58
2021/05/13 09:43:22;;;;;;;;;;;;;;;;;;4971915;28;19911;-55
2021/05/13 09:45:47;;;;;;;;;;;;;;;;;;4973704;28;19906;-55
2021/05/13 09:48:12;;;;;;;;;;;;;;;;;;4973813;28;19910;-56
2021/05/13 09:50:38;;;;;;;;;;;;;;;;;;4975140;28;19914;-55
2021/05/13 09:53:03;;;;;;;;;;;;;;;;;;4975145;28;20249;-56
2021/05/13 09:55:28;;;;;;;;;;;;;;;;;;4975453;28;19953;-51
2021/05/13 09:57:54;;;;;;;;;;;;;;;;;;4972827;28;19911;-57
2021/05/13 10:00:19;;;;;;;;;;;;;;;;;;4974448;28;19941;-57
2021/05/13 10:02:44;;;;;;;;;;;;;;;;;;4976702;28;19999;-56
2021/05/13 10:05:09;;;;;;;;;;;;;;;;;;4994541;28;19916;-56
2021/05/13 10:07:34;;;;;;;;;;;;;;;;;;4994285;28;19914;-57
2021/05/13 10:09:59;;;;;;;;;;;;;;;;;;4993010;28;19913;-56
2021/05/13 10:12:25;;;;;;;;;;;;;;;;;;4980848;28;19914;-55
2021/05/13 10:14:53;;;;;;;;;;;;;;;;;;4985141;28;20020;-55
2021/05/13 10:17:18;;;;;;;;;;;;;;;;;;4983505;28;19922;-56
2021/05/13 10:19:43;;;;;;;;;;;;;;;;;;4982425;28;19936;-57
2021/05/13 10:22:09;;;;;;;;;;;;;;;;;;4980809;28;19923;-57
2021/05/13 10:24:34;;;;;;;;;;;;;;;;;;4981946;28;19920;-57
2021/05/13 10:26:59;;;;;;;;;;;;;;;;;;4983275;28;19914;-57
2021/05/13 10:29:26;;;;;;;;;;;;;;;;;;4981880;28;19922;-57
2021/05/13 10:31:51;;;;;;;;;;;;;;;;;;4984878;28;20072;-56
2021/05/13 10:34:16;;;;;;;;;;;;;;;;;;4982979;28;19910;-57
2021/05/13 10:36:42;;;;;;;;;;;;;;;;;;4985442;28;19929;-56
2021/05/13 10:39:07;;;;;;;;;;;;;;;;;;4966057;28;19914;-56
2021/05/13 10:41:33;;;;;;;;;;;;;;;;;;4982706;28;19922;-55
2021/05/13 10:43:58;;;;;;;;;;;;;;;;;;4964284;28;19914;-57
2021/05/13 10:46:23;;;;;;;;;;;;;;;;;;4982020;28;19939;-57
2021/05/13 10:48:48;;;;;;;;;;;;;;;;;;4981551;28;20004;-58
2021/05/13 10:51:15;;;;;;;;;;;;;;;;;;4981953;28;19961;-56
2021/05/13 10:53:47;;;;;;;;;;;;;;;;;;4981883;28;19914;-53
2021/05/13 10:56:13;;;;;;;;;;;;;;;;;;4981556;28;19956;-59
2021/05/13 10:58:38;;;;;;;;;;;;;;;;;;4982593;28;20289;-57
2021/05/13 11:01:03;;;;;;;;;;;;;;;;;;4981666;28;19957;-58
2021/05/13 11:03:31;;;;;;;;;;;;;;;;;;4982191;28;19918;-56
2021/05/13 11:05:56;;;;;;;;;;;;;;;;;;4983688;28;19930;-58
2021/05/13 11:08:21;;;;;;;;;;;;;;;;;;4982087;28;20000;-56
2021/05/13 11:10:46;;;;;;;;;;;;;;;;;;4965498;28;19953;-56
2021/05/13 11:13:12;;;;;;;;;;;;;;;;;;4965519;28;19914;-57
2021/05/13 11:15:37;;;;;;;;;;;;;;;;;;4985196;28;19914;-56
2021/05/13 11:18:05;;;;;;;;;;;;;;;;;;4986586;28;19918;-57
2021/05/13 11:20:31;;;;;;;;;;;;;;;;;;4988931;28;19920;-57
2021/05/13 11:22:56;;;;;;;;;;;;;;;;;;4995648;28;19922;-56
2021/05/13 11:25:21;;;;;;;;;;;;;;;;;;4996270;28;19925;-56
2021/05/13 11:27:47;;;;;;;;;;;;;;;;;;4997389;28;19910;-57
2021/05/13 11:30:12;;;;;;;;;;;;;;;;;;4996771;28;20008;-54
2021/05/13 11:32:38;;;;;;;;;;;;;;;;;;4996178;28;19925;-56
2021/05/13 11:35:03;;;;;;;;;;;;;;;;;;4978887;28;19928;-57
2021/05/13 11:37:28;;;;;;;;;;;;;;;;;;4997313;28;19913;-57
2021/05/13 11:39:53;;;;;;;;;;;;;;;;;;4996804;28;19922;-58
2021/05/13 11:42:19;;;;;;;;;;;;;;;;;;4997148;28;20297;-57
2021/05/13 11:44:44;;;;;;;;;;;;;;;;;;4995627;28;19914;-56
2021/05/13 11:47:09;;;;;;;;;;;;;;;;;;4995383;28;19917;-56
2021/05/13 11:49:34;;;;;;;;;;;;;;;;;;4995914;28;19914;-57
2021/05/13 11:51:59;;;;;;;;;;;;;;;;;;4979364;28;19913;-58
2021/05/13 11:54:25;;;;;;;;;;;;;;;;;;4997112;28;19920;-61
2021/05/13 11:56:51;;;;;;;;;;;;;;;;;;4995681;28;19936;-56
2021/05/13 11:59:18;;;;;;;;;;;;;;;;;;4978920;28;19914;-56
2021/05/13 12:01:43;;;;;;;;;;;;;;;;;;4996495;28;19921;-56
2021/05/13 12:04:08;;;;;;;;;;;;;;;;;;4978802;28;19913;-57
2021/05/13 12:06:33;;;;;;;;;;;;;;;;;;4995685;28;19968;-55
2021/05/13 12:08:59;;;;;;;;;;;;;;;;;;4994971;28;19914;-55
2021/05/13 12:11:24;;;;;;;;;;;;;;;;;;4995331;28;20001;-54
2021/05/13 12:13:49;;;;;;;;;;;;;;;;;;4996338;28;19929;-53
2021/05/13 12:16:15;;;;;;;;;;;;;;;;;;4994893;28;19914;-57
2021/05/13 12:18:40;;;;;;;;;;;;;;;;;;4995049;28;19921;-56
2021/05/13 12:21:05;;;;;;;;;;;;;;;;;;4995957;28;19914;-57
2021/05/13 12:23:30;;;;;;;;;;;;;;;;;;4996151;28;20012;-57
2021/05/13 12:25:56;;;;;;;;;;;;;;;;;;4995961;28;19963;-57
2021/05/13 12:28:21;;;;;;;;;;;;;;;;;;4995902;28;19918;-56
2021/05/13 12:30:46;;;;;;;;;;;;;;;;;;4995948;28;19918;-57
2021/05/13 12:33:11;;;;;;;;;;;;;;;;;;4995551;28;20008;-56
2021/05/13 12:35:36;;;;;;;;;;;;;;;;;;4969593;28;19929;-56
2021/05/13 12:38:02;;;;;;;;;;;;;;;;;;4983883;28;19913;-57
2021/05/13 12:40:27;;;;;;;;;;;;;;;;;;4983822;28;19920;-58
2021/05/13 12:42:52;;;;;;;;;;;;;;;;;;4984957;28;19937;-56
2021/05/13 12:45:18;;;;;;;;;;;;;;;;;;4983702;28;19921;-55
2021/05/13 12:47:43;;;;;;;;;;;;;;;;;;4969376;28;20274;-55
2021/05/13 12:50:08;;;;;;;;;;;;;;;;;;4984327;28;19984;-55
2021/05/13 12:52:33;;;;;;;;;;;;;;;;;;4984045;28;19929;-57
2021/05/13 12:54:58;;;;;;;;;;;;;;;;;;4984404;28;20000;-55
2021/05/13 12:57:24;;;;;;;;;;;;;;;;;;4982809;28;20293;-54
2021/05/13 12:59:49;;;;;;;;;;;;;;;;;;4983122;28;20352;-56
2021/05/13 13:02:14;;;;;;;;;;;;;;;;;;4982714;28;19929;-55
2021/05/13 13:04:40;;;;;;;;;;;;;;;;;;4984237;28;20451;-56
2021/05/13 13:07:05;;;;;;;;;;;;;;;;;;4983699;28;20294;-55
2021/05/13 13:09:30;;;;;;;;;;;;;;;;;;4983577;28;20366;-55
2021/05/13 13:11:55;;;;;;;;;;;;;;;;;;4983289;28;19929;-56
2021/05/13 13:14:20;;;;;;;;;;;;;;;;;;4984719;28;20357;-55
2021/05/13 13:16:46;;;;;;;;;;;;;;;;;;4981858;28;19941;-55
2021/05/13 13:19:11;;;;;;;;;;;;;;;;;;4983715;28;19965;-55
2021/05/13 13:21:37;;;;;;;;;;;;;;;;;;4984140;28;19910;-55
2021/05/13 13:24:02;;;;;;;;;;;;;;;;;;4982356;28;19918;-56
2021/05/13 13:26:29;;;;;;;;;;;;;;;;;;4984686;28;19913;-54
2021/05/13 13:28:54;;;;;;;;;;;;;;;;;;4982672;28;20327;-54
2021/05/13 13:31:20;;;;;;;;;;;;;;;;;;4984011;28;20369;-54
2021/05/13 13:33:49;;;;;;;;;;;;;;;;;;4984022;28;19921;-52
2021/05/13 13:36:14;;;;;;;;;;;;;;;;;;4982503;28;19968;-54
2021/05/13 13:38:41;;;;;;;;;;;;;;;;;;4983812;28;20270;-53
2021/05/13 13:41:06;;;;;;;;;;;;;;;;;;4968010;28;19913;-53
2021/05/13 13:43:31;;;;;;;;;;;;;;;;;;4984344;28;19948;-52
2021/05/13 13:45:56;;;;;;;;;;;;;;;;;;4984852;28;20000;-52
2021/05/13 13:48:22;;;;;;;;;;;;;;;;;;4984411;28;19918;-56
2021/05/13 13:50:47;;;;;;;;;;;;;;;;;;4983188;28;19918;-56
2021/05/13 13:53:12;;;;;;;;;;;;;;;;;;4984954;28;19922;-54
2021/05/13 13:55:38;;;;;;;;;;;;;;;;;;4987066;28;20015;-52
2021/05/13 13:58:03;;;;;;;;;;;;;;;;;;4984755;28;19918;-52
2021/05/13 14:00:28;;;;;;;;;;;;;;;;;;4982472;28;19914;-54
2021/05/13 14:02:55;;;;;;;;;;;;;;;;;;4978382;28;20325;-54
2021/05/13 14:05:21;;;;;;;;;;;;;;;;;;4975833;28;20001;-58
2021/05/13 14:07:46;;;;;;;;;;;;;;;;;;4975563;28;19972;-56
2021/05/13 14:10:11;;;;;;;;;;;;;;;;;;4983054;28;19922;-55
2021/05/13 14:12:36;;;;;;;;;;;;;;;;;;4983081;28;19922;-53
2021/05/13 14:15:02;;;;;;;;;;;;;;;;;;4982581;28;19998;-54
2021/05/13 14:17:28;;;;;;;;;;;;;;;;;;4980362;28;19961;-50
2021/05/13 14:19:53;;;;;;;;;;;;;;;;;;4982525;28;20412;-54
2021/05/13 14:22:18;;;;;;;;;;;;;;;;;;4982889;28;19914;-55
2021/05/13 14:24:43;;;;;;;;;;;;;;;;;;4982057;28;20325;-55
2021/05/13 14:27:09;;;;;;;;;;;;;;;;;;4983622;28;19914;-52
2021/05/13 14:29:34;;;;;;;;;;;;;;;;;;4981441;28;19914;-54
2021/05/13 14:31:59;;;;;;;;;;;;;;;;;;4982498;28;19925;-55
2021/05/13 14:34:26;;;;;;;;;;;;;;;;;;4983855;28;19928;-53
2021/05/13 14:36:51;;;;;;;;;;;;;;;;;;4982597;28;19925;-55
2021/05/13 14:39:17;;;;;;;;;;;;;;;;;;4983136;28;20054;-54
2021/05/13 14:41:42;;;;;;;;;;;;;;;;;;4982372;28;20033;-53
2021/05/13 14:44:07;;;;;;;;;;;;;;;;;;4983799;28;20389;-54
2021/05/13 14:46:33;;;;;;;;;;;;;;;;;;4981859;28;20428;-55
2021/05/13 14:49:09;;;;;;;;;;;;;;;;;;4982573;28;19918;-54
2021/05/13 14:51:35;;;;;;;;;;;;;;;;;;4981345;28;20019;-52
2021/05/13 14:54:00;;;;;;;;;;;;;;;;;;4984861;28;20355;-54
2021/05/13 14:56:25;;;;;;;;;;;;;;;;;;4981306;28;19911;-53
2021/05/13 14:58:51;;;;;;;;;;;;;;;;;;4974856;28;19919;-54
2021/05/13 15:01:21;;;;;;;;;;;;;;;;;;4979294;28;19914;-53
2021/05/13 15:03:47;;;;;;;;;;;;;;;;;;4979375;28;20433;-52
2021/05/13 15:06:12;;;;;;;;;;;;;;;;;;4980165;28;19926;-54
2021/05/13 15:08:37;;;;;;;;;;;;;;;;;;4982567;28;20269;-53
2021/05/13 15:11:02;;;;;;;;;;;;;;;;;;4977902;28;20326;-53
2021/05/13 15:13:28;;;;;;;;;;;;;;;;;;4981137;28;19910;-53
2021/05/13 15:15:53;;;;;;;;;;;;;;;;;;4978253;28;20310;-54
2021/05/13 15:18:18;;;;;;;;;;;;;;;;;;4980184;28;19917;-52
2021/05/13 15:20:43;;;;;;;;;;;;;;;;;;4983276;28;19918;-56
2021/05/13 15:23:09;;;;;;;;;;;;;;;;;;4979927;28;19965;-52
2021/05/13 15:25:34;;;;;;;;;;;;;;;;;;4982527;28;20009;-55
2021/05/13 15:28:00;;;;;;;;;;;;;;;;;;4980689;28;20358;-55
2021/05/13 15:30:26;;;;;;;;;;;;;;;;;;4962989;28;19975;-53
2021/05/13 15:32:52;;;;;;;;;;;;;;;;;;4966534;28;19937;-55
2021/05/13 15:35:17;;;;;;;;;;;;;;;;;;4981862;28;19913;-52
2021/05/13 15:37:42;;;;;;;;;;;;;;;;;;4981540;28;20310;-55
2021/05/13 15:40:07;;;;;;;;;;;;;;;;;;4980792;28;19914;-55
2021/05/13 15:42:33;;;;;;;;;;;;;;;;;;4982640;28;19920;-51
2021/05/13 15:44:58;;;;;;;;;;;;;;;;;;4981931;28;19917;-53
2021/05/13 15:47:23;;;;;;;;;;;;;;;;;;4980179;28;19921;-55
2021/05/13 15:49:48;;;;;;;;;;;;;;;;;;4980849;28;19914;-54
2021/05/13 15:52:14;;;;;;;;;;;;;;;;;;4982644;28;20469;-56
2021/05/13 15:54:39;;;;;;;;;;;;;;;;;;4981954;28;19910;-52
2021/05/13 15:57:04;;;;;;;;;;;;;;;;;;4983400;28;19921;-53
2021/05/13 15:59:29;;;;;;;;;;;;;;;;;;4981165;28;20318;-55
2021/05/13 16:01:55;;;;;;;;;;;;;;;;;;4984349;28;19976;-53
2021/05/13 16:04:20;;;;;;;;;;;;;;;;;;4986306;28;19952;-53
2021/05/13 16:06:45;;;;;;;;;;;;;;;;;;4987207;28;19957;-56
2021/05/13 16:09:10;;;;;;;;;;;;;;;;;;4984910;28;19914;-54
2021/05/13 16:11:38;;;;;;;;;;;;;;;;;;4985801;28;19913;-56
2021/05/13 16:14:04;;;;;;;;;;;;;;;;;;4986878;28;19930;-54
2021/05/13 16:16:29;;;;;;;;;;;;;;;;;;4983724;28;19914;-52
2021/05/13 16:18:54;;;;;;;;;;;;;;;;;;4987222;28;19981;-54
2021/05/13 16:21:19;;;;;;;;;;;;;;;;;;4977690;28;20343;-59
2021/05/13 16:23:45;;;;;;;;;;;;;;;;;;4976469;28;19922;-54
2021/05/13 16:26:10;;;;;;;;;;;;;;;;;;4976562;28;19914;-55
2021/05/13 16:28:36;;;;;;;;;;;;;;;;;;4976923;28;19981;-55
2021/05/13 16:31:01;;;;;;;;;;;;;;;;;;4959236;28;19921;-54
2021/05/13 16:33:27;;;;;;;;;;;;;;;;;;4975140;28;20285;-53
2021/05/13 16:35:52;;;;;;;;;;;;;;;;;;4975883;28;20282;-52
2021/05/13 16:38:17;;;;;;;;;;;;;;;;;;4979667;28;19914;-54
2021/05/13 16:40:42;;;;;;;;;;;;;;;;;;4985592;28;20374;-53
2021/05/13 16:43:08;;;;;;;;;;;;;;;;;;4978576;28;20406;-52